sensor_id;sensor_type;location;lat;lon;timestamp;P1;durP1;ratioP1;P2;durP2;ratioP2
48823;SDS011;34640;53.590;10.054;2023-11-21T00:00:23;17.98;;;9.23;;
48823;SDS011;34640;53.590;10.054;2023-11-21T00:02:56;20.20;;;9.10;;
48823;SDS011;34640;53.590;10.054;2023-11-21T00:05:29;16.63;;;8.88;;
48823;SDS011;34640;53.590;10.054;2023-11-21T00:08:03;13.98;;;7.03;;
48823;SDS011;34640;53.590;10.054;2023-11-21T00:10:37;11.43;;;6.40;;
48823;SDS011;34640;53.590;10.054;2023-11-21T00:13:10;12.32;;;6.80;;
48823;SDS011;34640;53.590;10.054;2023-11-21T00:15:43;11.10;;;5.97;;
48823;SDS011;34640;53.590;10.054;2023-11-21T00:18:16;9.45;;;5.90;;
48823;SDS011;34640;53.590;10.054;2023-11-21T00:20:49;12.52;;;6.25;;
48823;SDS011;34640;53.590;10.054;2023-11-21T00:23:23;12.15;;;6.63;;
48823;SDS011;34640;53.590;10.054;2023-11-21T00:25:56;13.13;;;7.35;;
48823;SDS011;34640;53.590;10.054;2023-11-21T00:28:29;17.75;;;7.60;;
48823;SDS011;34640;53.590;10.054;2023-11-21T00:31:02;15.30;;;8.63;;
48823;SDS011;34640;53.590;10.054;2023-11-21T00:33:35;17.80;;;8.10;;
48823;SDS011;34640;53.590;10.054;2023-11-21T00:36:09;14.25;;;7.57;;
48823;SDS011;34640;53.590;10.054;2023-11-21T00:38:43;15.85;;;8.65;;
48823;SDS011;34640;53.590;10.054;2023-11-21T00:41:16;20.38;;;9.35;;
48823;SDS011;34640;53.590;10.054;2023-11-21T00:43:49;20.35;;;9.68;;
48823;SDS011;34640;53.590;10.054;2023-11-21T00:46:22;21.15;;;9.57;;
48823;SDS011;34640;53.590;10.054;2023-11-21T00:48:55;21.42;;;9.30;;
48823;SDS011;34640;53.590;10.054;2023-11-21T00:51:28;18.52;;;9.40;;
48823;SDS011;34640;53.590;10.054;2023-11-21T00:54:03;22.45;;;10.95;;
48823;SDS011;34640;53.590;10.054;2023-11-21T00:56:38;21.60;;;10.65;;
48823;SDS011;34640;53.590;10.054;2023-11-21T00:59:11;23.75;;;11.85;;
48823;SDS011;34640;53.590;10.054;2023-11-21T01:01:44;28.58;;;13.05;;
48823;SDS011;34640;53.590;10.054;2023-11-21T01:04:17;27.23;;;12.00;;
48823;SDS011;34640;53.590;10.054;2023-11-21T01:06:50;27.02;;;12.25;;
48823;SDS011;34640;53.590;10.054;2023-11-21T01:09:24;28.13;;;12.85;;
48823;SDS011;34640;53.590;10.054;2023-11-21T01:11:59;25.15;;;12.70;;
48823;SDS011;34640;53.590;10.054;2023-11-21T01:14:32;30.90;;;11.73;;
48823;SDS011;34640;53.590;10.054;2023-11-21T01:17:05;28.27;;;13.43;;
48823;SDS011;34640;53.590;10.054;2023-11-21T01:19:38;21.63;;;11.70;;
48823;SDS011;34640;53.590;10.054;2023-11-21T01:22:11;25.15;;;12.20;;
48823;SDS011;34640;53.590;10.054;2023-11-21T01:24:45;23.63;;;11.95;;
48823;SDS011;34640;53.590;10.054;2023-11-21T01:27:18;18.10;;;9.95;;
48823;SDS011;34640;53.590;10.054;2023-11-21T01:29:51;23.60;;;10.63;;
48823;SDS011;34640;53.590;10.054;2023-11-21T01:32:25;23.13;;;10.55;;
48823;SDS011;34640;53.590;10.054;2023-11-21T01:34:58;26.50;;;11.35;;
48823;SDS011;34640;53.590;10.054;2023-11-21T01:37:32;23.38;;;9.98;;
48823;SDS011;34640;53.590;10.054;2023-11-21T01:40:07;21.02;;;9.48;;
48823;SDS011;34640;53.590;10.054;2023-11-21T01:42:42;17.50;;;9.85;;
48823;SDS011;34640;53.590;10.054;2023-11-21T01:45:15;17.75;;;9.63;;
48823;SDS011;34640;53.590;10.054;2023-11-21T01:47:48;16.25;;;8.88;;
48823;SDS011;34640;53.590;10.054;2023-11-21T01:50:21;16.80;;;8.40;;
48823;SDS011;34640;53.590;10.054;2023-11-21T01:52:54;18.63;;;9.32;;
48823;SDS011;34640;53.590;10.054;2023-11-21T01:55:29;16.17;;;8.05;;
48823;SDS011;34640;53.590;10.054;2023-11-21T01:58:02;14.98;;;8.13;;
48823;SDS011;34640;53.590;10.054;2023-11-21T02:00:35;17.55;;;8.30;;
48823;SDS011;34640;53.590;10.054;2023-11-21T02:03:09;13.88;;;7.72;;
48823;SDS011;34640;53.590;10.054;2023-11-21T02:05:43;14.73;;;7.45;;
48823;SDS011;34640;53.590;10.054;2023-11-21T02:08:16;15.15;;;7.28;;
48823;SDS011;34640;53.590;10.054;2023-11-21T02:10:52;15.07;;;7.03;;
48823;SDS011;34640;53.590;10.054;2023-11-21T02:13:25;15.60;;;7.80;;
48823;SDS011;34640;53.590;10.054;2023-11-21T02:15:57;16.73;;;7.43;;
48823;SDS011;34640;53.590;10.054;2023-11-21T02:18:32;17.45;;;7.05;;
48823;SDS011;34640;53.590;10.054;2023-11-21T02:21:05;12.63;;;6.97;;
48823;SDS011;34640;53.590;10.054;2023-11-21T02:23:40;13.98;;;7.45;;
48823;SDS011;34640;53.590;10.054;2023-11-21T02:26:15;12.13;;;6.72;;
48823;SDS011;34640;53.590;10.054;2023-11-21T02:28:48;11.75;;;6.72;;
48823;SDS011;34640;53.590;10.054;2023-11-21T02:31:21;13.65;;;6.88;;
48823;SDS011;34640;53.590;10.054;2023-11-21T02:33:54;12.85;;;6.88;;
48823;SDS011;34640;53.590;10.054;2023-11-21T02:36:27;11.32;;;6.75;;
48823;SDS011;34640;53.590;10.054;2023-11-21T02:39:01;13.05;;;7.15;;
48823;SDS011;34640;53.590;10.054;2023-11-21T02:41:34;12.05;;;7.25;;
48823;SDS011;34640;53.590;10.054;2023-11-21T02:44:07;11.15;;;6.63;;
48823;SDS011;34640;53.590;10.054;2023-11-21T02:46:39;12.05;;;7.20;;
48823;SDS011;34640;53.590;10.054;2023-11-21T02:49:12;11.10;;;6.30;;
48823;SDS011;34640;53.590;10.054;2023-11-21T02:51:45;11.30;;;6.88;;
48823;SDS011;34640;53.590;10.054;2023-11-21T02:54:20;10.52;;;6.43;;
48823;SDS011;34640;53.590;10.054;2023-11-21T02:56:53;12.35;;;6.80;;
48823;SDS011;34640;53.590;10.054;2023-11-21T02:59:26;14.38;;;7.18;;
48823;SDS011;34640;53.590;10.054;2023-11-21T03:01:59;13.40;;;7.38;;
48823;SDS011;34640;53.590;10.054;2023-11-21T03:04:32;12.95;;;6.97;;
48823;SDS011;34640;53.590;10.054;2023-11-21T03:07:06;14.02;;;7.45;;
48823;SDS011;34640;53.590;10.054;2023-11-21T03:09:40;15.50;;;7.45;;
48823;SDS011;34640;53.590;10.054;2023-11-21T03:12:13;15.10;;;7.25;;
48823;SDS011;34640;53.590;10.054;2023-11-21T03:14:47;12.50;;;6.75;;
48823;SDS011;34640;53.590;10.054;2023-11-21T03:17:20;11.55;;;6.22;;
48823;SDS011;34640;53.590;10.054;2023-11-21T03:19:52;15.43;;;6.90;;
48823;SDS011;34640;53.590;10.054;2023-11-21T03:22:26;17.27;;;7.30;;
48823;SDS011;34640;53.590;10.054;2023-11-21T03:25:00;12.40;;;6.70;;
48823;SDS011;34640;53.590;10.054;2023-11-21T03:27:33;14.90;;;6.63;;
48823;SDS011;34640;53.590;10.054;2023-11-21T03:30:07;13.30;;;6.78;;
48823;SDS011;34640;53.590;10.054;2023-11-21T03:32:42;14.07;;;6.82;;
48823;SDS011;34640;53.590;10.054;2023-11-21T03:35:15;11.43;;;6.50;;
48823;SDS011;34640;53.590;10.054;2023-11-21T03:37:48;23.67;;;7.43;;
48823;SDS011;34640;53.590;10.054;2023-11-21T03:40:22;12.63;;;6.78;;
48823;SDS011;34640;53.590;10.054;2023-11-21T03:42:55;14.40;;;7.53;;
48823;SDS011;34640;53.590;10.054;2023-11-21T03:45:27;17.40;;;7.43;;
48823;SDS011;34640;53.590;10.054;2023-11-21T03:48:00;14.75;;;7.38;;
48823;SDS011;34640;53.590;10.054;2023-11-21T03:50:34;13.55;;;7.40;;
48823;SDS011;34640;53.590;10.054;2023-11-21T03:53:06;12.02;;;7.28;;
48823;SDS011;34640;53.590;10.054;2023-11-21T03:55:41;13.50;;;7.38;;
48823;SDS011;34640;53.590;10.054;2023-11-21T03:58:14;14.93;;;7.63;;
48823;SDS011;34640;53.590;10.054;2023-11-21T04:00:47;12.27;;;7.13;;
48823;SDS011;34640;53.590;10.054;2023-11-21T04:03:20;16.20;;;7.78;;
48823;SDS011;34640;53.590;10.054;2023-11-21T04:05:53;14.98;;;7.38;;
48823;SDS011;34640;53.590;10.054;2023-11-21T04:08:26;13.90;;;7.80;;
48823;SDS011;34640;53.590;10.054;2023-11-21T04:11:00;14.35;;;8.05;;
48823;SDS011;34640;53.590;10.054;2023-11-21T04:13:33;14.75;;;7.97;;
48823;SDS011;34640;53.590;10.054;2023-11-21T04:16:07;15.77;;;8.65;;
48823;SDS011;34640;53.590;10.054;2023-11-21T04:18:40;15.75;;;8.02;;
48823;SDS011;34640;53.590;10.054;2023-11-21T04:21:13;15.52;;;8.18;;
48823;SDS011;34640;53.590;10.054;2023-11-21T04:23:46;14.93;;;7.85;;
48823;SDS011;34640;53.590;10.054;2023-11-21T04:26:21;14.13;;;8.10;;
48823;SDS011;34640;53.590;10.054;2023-11-21T04:28:53;17.02;;;7.93;;
48823;SDS011;34640;53.590;10.054;2023-11-21T04:31:26;13.48;;;8.00;;
48823;SDS011;34640;53.590;10.054;2023-11-21T04:33:59;14.60;;;7.78;;
48823;SDS011;34640;53.590;10.054;2023-11-21T04:36:32;15.50;;;8.48;;
48823;SDS011;34640;53.590;10.054;2023-11-21T04:39:06;15.88;;;8.20;;
48823;SDS011;34640;53.590;10.054;2023-11-21T04:41:40;15.02;;;8.02;;
48823;SDS011;34640;53.590;10.054;2023-11-21T04:44:14;17.90;;;8.15;;
48823;SDS011;34640;53.590;10.054;2023-11-21T04:46:47;14.13;;;8.10;;
48823;SDS011;34640;53.590;10.054;2023-11-21T04:49:20;16.48;;;7.63;;
48823;SDS011;34640;53.590;10.054;2023-11-21T04:51:53;14.25;;;7.18;;
48823;SDS011;34640;53.590;10.054;2023-11-21T04:54:26;17.45;;;8.63;;
48823;SDS011;34640;53.590;10.054;2023-11-21T04:57:00;12.85;;;7.35;;
48823;SDS011;34640;53.590;10.054;2023-11-21T04:59:33;14.30;;;8.13;;
48823;SDS011;34640;53.590;10.054;2023-11-21T05:02:06;15.70;;;7.95;;
48823;SDS011;34640;53.590;10.054;2023-11-21T05:04:47;12.55;;;7.22;;
48823;SDS011;34640;53.590;10.054;2023-11-21T05:07:20;14.38;;;7.82;;
48823;SDS011;34640;53.590;10.054;2023-11-21T05:09:53;16.83;;;8.05;;
48823;SDS011;34640;53.590;10.054;2023-11-21T05:12:27;14.80;;;8.13;;
48823;SDS011;34640;53.590;10.054;2023-11-21T05:15:01;13.48;;;7.85;;
48823;SDS011;34640;53.590;10.054;2023-11-21T05:17:34;13.95;;;7.72;;
48823;SDS011;34640;53.590;10.054;2023-11-21T05:20:08;12.75;;;7.20;;
48823;SDS011;34640;53.590;10.054;2023-11-21T05:22:42;14.45;;;8.60;;
48823;SDS011;34640;53.590;10.054;2023-11-21T05:25:15;14.88;;;8.45;;
48823;SDS011;34640;53.590;10.054;2023-11-21T05:27:54;12.73;;;7.22;;
48823;SDS011;34640;53.590;10.054;2023-11-21T05:30:26;15.55;;;8.43;;
48823;SDS011;34640;53.590;10.054;2023-11-21T05:32:59;13.13;;;7.10;;
48823;SDS011;34640;53.590;10.054;2023-11-21T05:35:32;18.60;;;8.15;;
48823;SDS011;34640;53.590;10.054;2023-11-21T05:38:05;13.93;;;7.60;;
48823;SDS011;34640;53.590;10.054;2023-11-21T05:40:38;14.25;;;7.50;;
48823;SDS011;34640;53.590;10.054;2023-11-21T05:43:14;14.65;;;8.15;;
48823;SDS011;34640;53.590;10.054;2023-11-21T05:45:47;15.10;;;6.93;;
48823;SDS011;34640;53.590;10.054;2023-11-21T05:48:20;11.68;;;6.95;;
48823;SDS011;34640;53.590;10.054;2023-11-21T05:50:53;19.17;;;10.57;;
48823;SDS011;34640;53.590;10.054;2023-11-21T05:53:26;11.77;;;7.20;;
48823;SDS011;34640;53.590;10.054;2023-11-21T05:55:59;15.45;;;7.93;;
48823;SDS011;34640;53.590;10.054;2023-11-21T05:58:34;19.42;;;8.20;;
48823;SDS011;34640;53.590;10.054;2023-11-21T06:01:07;14.25;;;7.55;;
48823;SDS011;34640;53.590;10.054;2023-11-21T06:03:40;16.27;;;7.90;;
48823;SDS011;34640;53.590;10.054;2023-11-21T06:06:13;16.48;;;7.70;;
48823;SDS011;34640;53.590;10.054;2023-11-21T06:08:46;17.02;;;7.88;;
48823;SDS011;34640;53.590;10.054;2023-11-21T06:11:19;15.77;;;7.78;;
48823;SDS011;34640;53.590;10.054;2023-11-21T06:13:56;14.02;;;7.90;;
48823;SDS011;34640;53.590;10.054;2023-11-21T06:16:29;14.48;;;7.60;;
48823;SDS011;34640;53.590;10.054;2023-11-21T06:19:02;14.32;;;7.95;;
48823;SDS011;34640;53.590;10.054;2023-11-21T06:21:36;17.50;;;7.60;;
48823;SDS011;34640;53.590;10.054;2023-11-21T06:24:11;14.70;;;8.32;;
48823;SDS011;34640;53.590;10.054;2023-11-21T06:26:43;15.50;;;7.82;;
48823;SDS011;34640;53.590;10.054;2023-11-21T06:29:18;15.25;;;8.25;;
48823;SDS011;34640;53.590;10.054;2023-11-21T06:31:51;15.95;;;7.38;;
48823;SDS011;34640;53.590;10.054;2023-11-21T06:34:26;18.52;;;8.02;;
48823;SDS011;34640;53.590;10.054;2023-11-21T06:37:02;16.05;;;8.25;;
48823;SDS011;34640;53.590;10.054;2023-11-21T06:39:34;14.27;;;7.57;;
48823;SDS011;34640;53.590;10.054;2023-11-21T06:42:10;16.52;;;7.63;;
48823;SDS011;34640;53.590;10.054;2023-11-21T06:44:44;14.65;;;7.88;;
48823;SDS011;34640;53.590;10.054;2023-11-21T06:47:17;14.27;;;8.20;;
48823;SDS011;34640;53.590;10.054;2023-11-21T06:49:51;12.77;;;7.53;;
48823;SDS011;34640;53.590;10.054;2023-11-21T06:52:25;17.33;;;8.32;;
48823;SDS011;34640;53.590;10.054;2023-11-21T06:54:58;14.80;;;7.55;;
48823;SDS011;34640;53.590;10.054;2023-11-21T06:57:31;14.93;;;7.30;;
48823;SDS011;34640;53.590;10.054;2023-11-21T07:00:06;13.43;;;7.30;;
48823;SDS011;34640;53.590;10.054;2023-11-21T07:02:41;13.43;;;7.30;;
48823;SDS011;34640;53.590;10.054;2023-11-21T07:05:14;13.82;;;7.03;;
48823;SDS011;34640;53.590;10.054;2023-11-21T07:07:52;13.75;;;7.38;;
48823;SDS011;34640;53.590;10.054;2023-11-21T07:10:25;11.82;;;7.32;;
48823;SDS011;34640;53.590;10.054;2023-11-21T07:12:58;14.90;;;7.47;;
48823;SDS011;34640;53.590;10.054;2023-11-21T07:15:33;16.30;;;7.00;;
48823;SDS011;34640;53.590;10.054;2023-11-21T07:18:06;15.05;;;7.10;;
48823;SDS011;34640;53.590;10.054;2023-11-21T07:20:39;12.10;;;7.03;;
48823;SDS011;34640;53.590;10.054;2023-11-21T07:23:12;15.82;;;7.38;;
48823;SDS011;34640;53.590;10.054;2023-11-21T07:25:47;18.20;;;7.35;;
48823;SDS011;34640;53.590;10.054;2023-11-21T07:28:20;13.90;;;7.55;;
48823;SDS011;34640;53.590;10.054;2023-11-21T07:30:54;12.43;;;6.72;;
48823;SDS011;34640;53.590;10.054;2023-11-21T07:33:27;12.40;;;7.13;;
48823;SDS011;34640;53.590;10.054;2023-11-21T07:36:00;11.85;;;6.78;;
48823;SDS011;34640;53.590;10.054;2023-11-21T07:38:33;14.77;;;7.38;;
48823;SDS011;34640;53.590;10.054;2023-11-21T07:41:06;10.55;;;6.22;;
48823;SDS011;34640;53.590;10.054;2023-11-21T07:43:56;13.48;;;6.35;;
48823;SDS011;34640;53.590;10.054;2023-11-21T07:46:31;10.48;;;6.05;;
48823;SDS011;34640;53.590;10.054;2023-11-21T07:49:04;10.07;;;6.47;;
48823;SDS011;34640;53.590;10.054;2023-11-21T07:51:37;11.73;;;5.88;;
48823;SDS011;34640;53.590;10.054;2023-11-21T07:54:10;14.15;;;6.43;;
48823;SDS011;34640;53.590;10.054;2023-11-21T07:56:43;16.05;;;6.47;;
48823;SDS011;34640;53.590;10.054;2023-11-21T07:59:16;10.05;;;5.88;;
48823;SDS011;34640;53.590;10.054;2023-11-21T08:01:51;10.10;;;6.00;;
48823;SDS011;34640;53.590;10.054;2023-11-21T08:04:24;12.05;;;6.55;;
48823;SDS011;34640;53.590;10.054;2023-11-21T08:06:57;10.80;;;5.55;;
48823;SDS011;34640;53.590;10.054;2023-11-21T08:09:30;16.00;;;6.38;;
48823;SDS011;34640;53.590;10.054;2023-11-21T08:12:04;9.82;;;5.10;;
48823;SDS011;34640;53.590;10.054;2023-11-21T08:14:39;10.57;;;5.70;;
48823;SDS011;34640;53.590;10.054;2023-11-21T08:17:13;10.23;;;5.60;;
48823;SDS011;34640;53.590;10.054;2023-11-21T08:19:49;8.70;;;4.70;;
48823;SDS011;34640;53.590;10.054;2023-11-21T08:22:23;13.95;;;5.32;;
48823;SDS011;34640;53.590;10.054;2023-11-21T08:24:57;7.78;;;4.38;;
48823;SDS011;34640;53.590;10.054;2023-11-21T08:27:30;10.70;;;4.63;;
48823;SDS011;34640;53.590;10.054;2023-11-21T08:30:03;10.35;;;4.95;;
48823;SDS011;34640;53.590;10.054;2023-11-21T08:32:39;7.28;;;4.63;;
48823;SDS011;34640;53.590;10.054;2023-11-21T08:35:12;11.93;;;4.20;;
48823;SDS011;34640;53.590;10.054;2023-11-21T08:37:46;7.57;;;4.20;;
48823;SDS011;34640;53.590;10.054;2023-11-21T08:40:19;7.18;;;4.13;;
48823;SDS011;34640;53.590;10.054;2023-11-21T08:42:53;10.05;;;4.20;;
48823;SDS011;34640;53.590;10.054;2023-11-21T08:45:26;8.05;;;4.35;;
48823;SDS011;34640;53.590;10.054;2023-11-21T08:48:00;8.40;;;4.50;;
48823;SDS011;34640;53.590;10.054;2023-11-21T08:50:37;8.80;;;3.90;;
48823;SDS011;34640;53.590;10.054;2023-11-21T08:53:09;7.07;;;4.07;;
48823;SDS011;34640;53.590;10.054;2023-11-21T08:55:43;12.15;;;3.88;;
48823;SDS011;34640;53.590;10.054;2023-11-21T08:58:17;11.18;;;3.83;;
48823;SDS011;34640;53.590;10.054;2023-11-21T09:00:49;6.85;;;4.03;;
48823;SDS011;34640;53.590;10.054;2023-11-21T09:03:24;9.63;;;4.07;;
48823;SDS011;34640;53.590;10.054;2023-11-21T09:05:58;5.30;;;3.45;;
48823;SDS011;34640;53.590;10.054;2023-11-21T09:08:31;6.57;;;3.33;;
48823;SDS011;34640;53.590;10.054;2023-11-21T09:11:04;9.18;;;3.60;;
48823;SDS011;34640;53.590;10.054;2023-11-21T09:13:37;6.95;;;3.45;;
48823;SDS011;34640;53.590;10.054;2023-11-21T09:16:10;7.93;;;3.63;;
48823;SDS011;34640;53.590;10.054;2023-11-21T09:18:44;9.48;;;4.05;;
48823;SDS011;34640;53.590;10.054;2023-11-21T09:21:18;6.05;;;3.75;;
48823;SDS011;34640;53.590;10.054;2023-11-21T09:23:51;9.90;;;3.85;;
48823;SDS011;34640;53.590;10.054;2023-11-21T09:26:25;9.70;;;3.92;;
48823;SDS011;34640;53.590;10.054;2023-11-21T09:28:58;10.93;;;3.70;;
48823;SDS011;34640;53.590;10.054;2023-11-21T09:31:31;5.60;;;3.20;;
48823;SDS011;34640;53.590;10.054;2023-11-21T09:34:06;7.38;;;3.88;;
48823;SDS011;34640;53.590;10.054;2023-11-21T09:36:39;5.93;;;3.55;;
48823;SDS011;34640;53.590;10.054;2023-11-21T09:39:12;6.95;;;3.60;;
48823;SDS011;34640;53.590;10.054;2023-11-21T09:41:49;7.35;;;3.55;;
48823;SDS011;34640;53.590;10.054;2023-11-21T09:44:25;13.50;;;3.50;;
48823;SDS011;34640;53.590;10.054;2023-11-21T09:47:07;4.57;;;2.83;;
48823;SDS011;34640;53.590;10.054;2023-11-21T09:49:46;6.25;;;3.08;;
48823;SDS011;34640;53.590;10.054;2023-11-21T09:52:22;7.32;;;2.97;;
48823;SDS011;34640;53.590;10.054;2023-11-21T09:54:57;7.13;;;3.08;;
48823;SDS011;34640;53.590;10.054;2023-11-21T09:57:31;9.68;;;3.08;;
48823;SDS011;34640;53.590;10.054;2023-11-21T10:00:05;6.40;;;2.90;;
48823;SDS011;34640;53.590;10.054;2023-11-21T10:02:43;4.28;;;2.88;;
48823;SDS011;34640;53.590;10.054;2023-11-21T10:05:19;4.63;;;2.63;;
48823;SDS011;34640;53.590;10.054;2023-11-21T10:07:56;5.15;;;3.17;;
48823;SDS011;34640;53.590;10.054;2023-11-21T10:10:30;12.85;;;2.90;;
48823;SDS011;34640;53.590;10.054;2023-11-21T10:13:06;6.47;;;2.97;;
48823;SDS011;34640;53.590;10.054;2023-11-21T10:15:42;7.68;;;2.83;;
48823;SDS011;34640;53.590;10.054;2023-11-21T10:18:19;5.25;;;2.85;;
48823;SDS011;34640;53.590;10.054;2023-11-21T10:20:55;6.60;;;3.20;;
48823;SDS011;34640;53.590;10.054;2023-11-21T10:23:29;6.03;;;2.65;;
48823;SDS011;34640;53.590;10.054;2023-11-21T10:26:05;4.03;;;2.35;;
48823;SDS011;34640;53.590;10.054;2023-11-21T10:29:02;3.70;;;2.15;;
48823;SDS011;34640;53.590;10.054;2023-11-21T10:31:35;4.85;;;2.67;;
48823;SDS011;34640;53.590;10.054;2023-11-21T10:34:14;4.95;;;2.60;;
48823;SDS011;34640;53.590;10.054;2023-11-21T10:36:49;5.47;;;2.25;;
48823;SDS011;34640;53.590;10.054;2023-11-21T10:39:23;5.25;;;2.70;;
48823;SDS011;34640;53.590;10.054;2023-11-21T10:42:02;5.90;;;2.40;;
48823;SDS011;34640;53.590;10.054;2023-11-21T10:44:35;6.00;;;2.33;;
48823;SDS011;34640;53.590;10.054;2023-11-21T10:47:09;4.40;;;2.83;;
48823;SDS011;34640;53.590;10.054;2023-11-21T10:49:43;6.20;;;2.47;;
48823;SDS011;34640;53.590;10.054;2023-11-21T10:52:20;4.35;;;2.70;;
48823;SDS011;34640;53.590;10.054;2023-11-21T10:54:53;4.40;;;2.55;;
48823;SDS011;34640;53.590;10.054;2023-11-21T10:57:28;3.17;;;2.38;;
48823;SDS011;34640;53.590;10.054;2023-11-21T11:00:03;6.13;;;2.53;;
48823;SDS011;34640;53.590;10.054;2023-11-21T11:02:37;4.93;;;2.30;;
48823;SDS011;34640;53.590;10.054;2023-11-21T11:05:13;5.30;;;2.65;;
48823;SDS011;34640;53.590;10.054;2023-11-21T11:07:55;8.73;;;4.50;;
48823;SDS011;34640;53.590;10.054;2023-11-21T11:10:32;3.92;;;2.55;;
48823;SDS011;34640;53.590;10.054;2023-11-21T11:13:06;6.13;;;2.75;;
48823;SDS011;34640;53.590;10.054;2023-11-21T11:15:40;3.90;;;2.63;;
48823;SDS011;34640;53.590;10.054;2023-11-21T11:18:14;8.30;;;2.90;;
48823;SDS011;34640;53.590;10.054;2023-11-21T11:20:48;5.30;;;2.17;;
48823;SDS011;34640;53.590;10.054;2023-11-21T11:23:32;4.15;;;2.60;;
48823;SDS011;34640;53.590;10.054;2023-11-21T11:26:20;6.47;;;2.75;;
48823;SDS011;34640;53.590;10.054;2023-11-21T11:29:08;6.70;;;2.90;;
48823;SDS011;34640;53.590;10.054;2023-11-21T11:31:50;3.63;;;2.20;;
48823;SDS011;34640;53.590;10.054;2023-11-21T11:34:32;4.13;;;2.20;;
48823;SDS011;34640;53.590;10.054;2023-11-21T11:37:10;5.55;;;2.40;;
48823;SDS011;34640;53.590;10.054;2023-11-21T11:39:45;5.47;;;2.30;;
48823;SDS011;34640;53.590;10.054;2023-11-21T11:42:19;4.43;;;2.80;;
48823;SDS011;34640;53.590;10.054;2023-11-21T11:44:55;7.07;;;2.58;;
48823;SDS011;34640;53.590;10.054;2023-11-21T11:47:29;4.45;;;2.17;;
48823;SDS011;34640;53.590;10.054;2023-11-21T11:50:06;18.77;;;3.95;;
48823;SDS011;34640;53.590;10.054;2023-11-21T11:52:45;7.15;;;2.67;;
48823;SDS011;34640;53.590;10.054;2023-11-21T11:55:22;4.28;;;2.20;;
48823;SDS011;34640;53.590;10.054;2023-11-21T11:57:57;5.13;;;2.58;;
48823;SDS011;34640;53.590;10.054;2023-11-21T12:00:33;4.50;;;2.53;;
48823;SDS011;34640;53.590;10.054;2023-11-21T12:03:09;5.68;;;2.53;;
48823;SDS011;34640;53.590;10.054;2023-11-21T12:05:42;6.00;;;2.47;;
48823;SDS011;34640;53.590;10.054;2023-11-21T12:08:16;4.97;;;2.78;;
48823;SDS011;34640;53.590;10.054;2023-11-21T12:10:51;5.43;;;2.45;;
48823;SDS011;34640;53.590;10.054;2023-11-21T12:13:25;7.93;;;2.63;;
48823;SDS011;34640;53.590;10.054;2023-11-21T12:16:01;6.82;;;2.42;;
48823;SDS011;34640;53.590;10.054;2023-11-21T12:18:33;5.78;;;2.55;;
48823;SDS011;34640;53.590;10.054;2023-11-21T12:21:07;5.95;;;2.38;;
48823;SDS011;34640;53.590;10.054;2023-11-21T12:23:41;6.07;;;2.70;;
48823;SDS011;34640;53.590;10.054;2023-11-21T12:26:15;4.97;;;2.17;;
48823;SDS011;34640;53.590;10.054;2023-11-21T12:28:51;4.93;;;2.28;;
48823;SDS011;34640;53.590;10.054;2023-11-21T12:31:28;3.20;;;2.05;;
48823;SDS011;34640;53.590;10.054;2023-11-21T12:34:02;5.82;;;2.50;;
48823;SDS011;34640;53.590;10.054;2023-11-21T12:36:36;6.20;;;2.22;;
48823;SDS011;34640;53.590;10.054;2023-11-21T12:39:11;5.57;;;2.90;;
48823;SDS011;34640;53.590;10.054;2023-11-21T12:41:47;5.22;;;2.30;;
48823;SDS011;34640;53.590;10.054;2023-11-21T12:44:23;4.93;;;2.10;;
48823;SDS011;34640;53.590;10.054;2023-11-21T12:46:56;3.50;;;2.08;;
48823;SDS011;34640;53.590;10.054;2023-11-21T12:49:29;7.07;;;2.67;;
48823;SDS011;34640;53.590;10.054;2023-11-21T12:52:04;5.43;;;2.85;;
48823;SDS011;34640;53.590;10.054;2023-11-21T12:54:38;4.30;;;2.45;;
48823;SDS011;34640;53.590;10.054;2023-11-21T12:57:13;3.90;;;2.28;;
48823;SDS011;34640;53.590;10.054;2023-11-21T12:59:47;4.43;;;2.60;;
48823;SDS011;34640;53.590;10.054;2023-11-21T13:02:26;5.20;;;2.63;;
48823;SDS011;34640;53.590;10.054;2023-11-21T13:05:00;5.20;;;2.08;;
48823;SDS011;34640;53.590;10.054;2023-11-21T13:07:41;5.93;;;2.25;;
48823;SDS011;34640;53.590;10.054;2023-11-21T13:10:18;4.97;;;2.53;;
48823;SDS011;34640;53.590;10.054;2023-11-21T13:12:57;5.53;;;2.72;;
48823;SDS011;34640;53.590;10.054;2023-11-21T13:15:31;6.35;;;2.78;;
48823;SDS011;34640;53.590;10.054;2023-11-21T13:18:06;4.43;;;2.47;;
48823;SDS011;34640;53.590;10.054;2023-11-21T13:20:46;3.80;;;2.35;;
48823;SDS011;34640;53.590;10.054;2023-11-21T13:23:19;3.70;;;2.28;;
48823;SDS011;34640;53.590;10.054;2023-11-21T13:25:54;6.05;;;2.33;;
48823;SDS011;34640;53.590;10.054;2023-11-21T13:28:38;4.95;;;2.42;;
48823;SDS011;34640;53.590;10.054;2023-11-21T13:31:13;5.05;;;2.67;;
48823;SDS011;34640;53.590;10.054;2023-11-21T13:33:57;5.03;;;2.53;;
48823;SDS011;34640;53.590;10.054;2023-11-21T13:36:37;4.78;;;2.40;;
48823;SDS011;34640;53.590;10.054;2023-11-21T13:39:10;4.85;;;2.50;;
48823;SDS011;34640;53.590;10.054;2023-11-21T13:41:47;6.00;;;2.47;;
48823;SDS011;34640;53.590;10.054;2023-11-21T13:44:23;3.92;;;2.30;;
48823;SDS011;34640;53.590;10.054;2023-11-21T13:47:06;4.10;;;2.30;;
48823;SDS011;34640;53.590;10.054;2023-11-21T13:49:39;6.47;;;2.60;;
48823;SDS011;34640;53.590;10.054;2023-11-21T13:52:13;5.65;;;2.60;;
48823;SDS011;34640;53.590;10.054;2023-11-21T13:54:49;4.30;;;2.38;;
48823;SDS011;34640;53.590;10.054;2023-11-21T13:57:30;7.35;;;2.47;;
48823;SDS011;34640;53.590;10.054;2023-11-21T14:00:06;6.90;;;2.30;;
48823;SDS011;34640;53.590;10.054;2023-11-21T14:03:01;3.17;;;2.03;;
48823;SDS011;34640;53.590;10.054;2023-11-21T14:05:40;6.82;;;2.03;;
48823;SDS011;34640;53.590;10.054;2023-11-21T14:08:14;4.30;;;2.60;;
48823;SDS011;34640;53.590;10.054;2023-11-21T14:10:48;3.60;;;2.28;;
48823;SDS011;34640;53.590;10.054;2023-11-21T14:13:27;4.47;;;2.45;;
48823;SDS011;34640;53.590;10.054;2023-11-21T14:16:02;6.22;;;2.50;;
48823;SDS011;34640;53.590;10.054;2023-11-21T14:18:41;8.80;;;2.53;;
48823;SDS011;34640;53.590;10.054;2023-11-21T14:21:24;3.85;;;2.13;;
48823;SDS011;34640;53.590;10.054;2023-11-21T14:23:57;5.35;;;2.35;;
48823;SDS011;34640;53.590;10.054;2023-11-21T14:26:31;4.82;;;2.42;;
48823;SDS011;34640;53.590;10.054;2023-11-21T14:29:05;7.10;;;2.30;;
48823;SDS011;34640;53.590;10.054;2023-11-21T14:31:41;5.80;;;3.03;;
48823;SDS011;34640;53.590;10.054;2023-11-21T14:34:15;3.53;;;1.95;;
48823;SDS011;34640;53.590;10.054;2023-11-21T14:36:53;4.15;;;2.20;;
48823;SDS011;34640;53.590;10.054;2023-11-21T14:39:26;3.47;;;1.80;;
48823;SDS011;34640;53.590;10.054;2023-11-21T14:41:59;3.40;;;1.83;;
48823;SDS011;34640;53.590;10.054;2023-11-21T14:44:34;4.45;;;1.85;;
48823;SDS011;34640;53.590;10.054;2023-11-21T14:47:12;5.15;;;2.13;;
48823;SDS011;34640;53.590;10.054;2023-11-21T14:49:48;6.97;;;2.30;;
48823;SDS011;34640;53.590;10.054;2023-11-21T14:52:25;4.20;;;1.90;;
48823;SDS011;34640;53.590;10.054;2023-11-21T14:55:05;3.22;;;2.00;;
48823;SDS011;34640;53.590;10.054;2023-11-21T14:58:03;4.43;;;1.80;;
48823;SDS011;34640;53.590;10.054;2023-11-21T15:00:36;6.05;;;2.03;;
48823;SDS011;34640;53.590;10.054;2023-11-21T15:03:17;3.03;;;1.65;;
48823;SDS011;34640;53.590;10.054;2023-11-21T15:06:09;4.72;;;1.95;;
48823;SDS011;34640;53.590;10.054;2023-11-21T15:08:58;4.18;;;1.92;;